createdAt,value
2023-01-25T00:01:37.901Z,67109.56
2023-01-25T00:04:06.066Z,67117.41
2023-01-25T00:06:33.253Z,67113.34
2023-01-25T00:09:00.604Z,67125.97
2023-01-25T00:11:27.835Z,67112.56
2023-01-25T00:13:56.880Z,67105.97
2023-01-25T00:16:24.502Z,67109.34
2023-01-25T00:18:52.261Z,67104.13
2023-01-25T00:21:22.445Z,67105.06
2023-01-25T00:23:50.038Z,67107.09
2023-01-25T00:26:17.532Z,67102.25
2023-01-25T00:28:55.656Z,67115.38
2023-01-25T00:31:44.873Z,67114.03
2023-01-25T00:34:33.011Z,67110.88
2023-01-25T00:37:06.096Z,67121.34
2023-01-25T00:39:33.510Z,67119.53
2023-01-25T00:42:00.642Z,67114.03
2023-01-25T00:44:27.749Z,67108.66
2023-01-25T00:46:54.909Z,67106.72
2023-01-25T00:49:32.277Z,67112.16
2023-01-25T00:51:59.909Z,67100.91
2023-01-25T00:54:27.173Z,67093.69
2023-01-25T00:56:56.495Z,67094.03
2023-01-25T00:59:24.828Z,67096.28
2023-01-25T01:01:54.192Z,67101.34
2023-01-25T01:04:28.326Z,67106.19
2023-01-25T01:06:55.551Z,67101.91
2023-01-25T01:09:23.898Z,67108.41
2023-01-25T01:11:55.940Z,67097.59
2023-01-25T01:14:23.718Z,67090.88
2023-01-25T01:16:52.415Z,67086.94
2023-01-25T01:19:19.636Z,67089.91
2023-01-25T01:21:47.397Z,67103.94
2023-01-25T01:24:14.580Z,67114.59
2023-01-25T01:26:41.610Z,67114.19
2023-01-25T01:29:09.546Z,67105.06
2023-01-25T01:31:37.080Z,67116.84
2023-01-25T01:34:16.032Z,67110.47
2023-01-25T01:36:43.248Z,67093.84
2023-01-25T01:39:10.972Z,67089.31
2023-01-25T01:41:38.068Z,67091.56
2023-01-25T01:44:06.351Z,67105.06
2023-01-25T01:46:37.603Z,67094.03
2023-01-25T01:49:08.555Z,67103.72
2023-01-25T01:51:45.768Z,67109.00
2023-01-25T01:54:31.349Z,67109.00
2023-01-25T01:57:09.210Z,67101.47
2023-01-25T01:59:53.967Z,67114.03
2023-01-25T02:02:24.942Z,67107.72
2023-01-25T02:04:57.260Z,67106.72
2023-01-25T02:07:33.331Z,67120.22
2023-01-25T02:10:06.356Z,67115.00
2023-01-25T02:12:34.159Z,67107.50
2023-01-25T02:15:01.317Z,67103.38
2023-01-25T02:17:36.708Z,67106.19
2023-01-25T02:20:16.646Z,67098.88
2023-01-25T02:23:07.354Z,67103.94
2023-01-25T02:25:39.322Z,67103.94
2023-01-25T02:28:06.750Z,67104.72
2023-01-25T02:30:36.561Z,67112.94
2023-01-25T02:33:03.820Z,67111.44
2023-01-25T02:35:45.369Z,67126.41
2023-01-25T02:38:15.927Z,67111.25
2023-01-25T02:40:47.992Z,67112.34
2023-01-25T02:43:16.360Z,67106.94
2023-01-25T02:45:49.470Z,67103.38
2023-01-25T02:48:17.200Z,67102.25
2023-01-25T02:50:45.361Z,67109.19
2023-01-25T02:53:12.494Z,67104.28
2023-01-25T02:55:39.638Z,67096.84
2023-01-25T02:58:09.299Z,67083.94
2023-01-25T03:00:38.809Z,67082.59
2023-01-25T03:03:05.811Z,67076.84
2023-01-25T03:05:33.847Z,67083.72
2023-01-25T03:08:01.295Z,67081.47
2023-01-25T03:10:28.433Z,67094.53
2023-01-25T03:12:56.183Z,67087.66
2023-01-25T03:15:25.249Z,67091.94
2023-01-25T03:17:54.176Z,67087.66
2023-01-25T03:20:23.271Z,67087.66
2023-01-25T03:22:50.497Z,67083.94
2023-01-25T03:25:27.888Z,67090.25
2023-01-25T03:28:01.386Z,67102.25
2023-01-25T03:30:30.490Z,67098.31
2023-01-25T03:32:58.254Z,67085.97
2023-01-25T03:35:25.431Z,67089.91
2023-01-25T03:37:53.173Z,67086.72
2023-01-25T03:40:22.553Z,67090.47
2023-01-25T03:42:51.516Z,67095.72
2023-01-25T03:45:20.362Z,67091.00
2023-01-25T03:47:47.835Z,67087.09
2023-01-25T03:50:15.473Z,67084.84
2023-01-25T03:52:46.420Z,67094.16
2023-01-25T03:55:14.451Z,67098.88
2023-01-25T03:57:50.114Z,67102.81
2023-01-25T04:00:20.116Z,67103.94
2023-01-25T04:02:55.692Z,67105.63
2023-01-25T04:05:22.809Z,67104.50
2023-01-25T04:07:50.472Z,67097.97
2023-01-25T04:10:23.605Z,67100.00
2023-01-25T04:12:51.316Z,67109.56
2023-01-25T04:15:20.376Z,67117.78
2023-01-25T04:17:48.609Z,67109.75
2023-01-25T04:20:22.818Z,67109.56
2023-01-25T04:22:50.498Z,67114.81
2023-01-25T04:25:19.937Z,67115.72
2023-01-25T04:27:51.551Z,67105.28
2023-01-25T04:30:20.351Z,67107.09
2023-01-25T04:32:49.652Z,67101.47
2023-01-25T04:35:50.414Z,67101.34
2023-01-25T04:38:19.137Z,67105.63
2023-01-25T04:40:47.402Z,67101.47
2023-01-25T04:43:16.079Z,67095.72
2023-01-25T04:45:45.297Z,67094.59
2023-01-25T04:48:20.986Z,67101.69
2023-01-25T04:50:54.029Z,67105.06
2023-01-25T04:53:23.053Z,67111.59
2023-01-25T04:55:51.151Z,67112.34
2023-01-25T04:58:18.516Z,67111.03
2023-01-25T05:00:45.996Z,67098.53
2023-01-25T05:03:13.342Z,67105.41
2023-01-25T05:05:47.000Z,67097.06
2023-01-25T05:08:17.463Z,67102.81
2023-01-25T05:10:46.402Z,67099.66
2023-01-25T05:13:50.246Z,67098.13
2023-01-25T05:16:22.733Z,67101.13
2023-01-25T05:18:50.143Z,67097.97
2023-01-25T05:21:43.007Z,67101.13
2023-01-25T05:24:13.137Z,67102.03
2023-01-25T05:27:15.798Z,67097.19
2023-01-25T05:29:56.031Z,67091.56
2023-01-25T05:32:39.414Z,67090.81
2023-01-25T05:35:07.575Z,67082.81
2023-01-25T05:37:39.178Z,67085.97
2023-01-25T05:40:09.421Z,67090.47
2023-01-25T05:42:56.082Z,67082.97
2023-01-25T05:45:27.621Z,67064.06
2023-01-25T05:48:07.021Z,67065.75
2023-01-25T05:50:34.232Z,67075.31
2023-01-25T05:53:05.379Z,67081.81
2023-01-25T05:55:35.698Z,67067.66
2023-01-25T05:58:07.009Z,67077.53
2023-01-25T06:00:34.218Z,67067.78
2023-01-25T06:03:02.366Z,67078.69
2023-01-25T06:05:31.701Z,67076.75
2023-01-25T06:07:59.413Z,67076.44
2023-01-25T06:10:32.608Z,67084.28
2023-01-25T06:13:00.195Z,67082.97
2023-01-25T06:15:27.546Z,67071.94
2023-01-25T06:17:59.140Z,67082.38
2023-01-25T06:20:52.852Z,67075.31
2023-01-25T06:23:25.989Z,67099.44
2023-01-25T06:25:56.192Z,67085.19
2023-01-25T06:28:23.384Z,67072.72
2023-01-25T06:30:50.460Z,67079.34
2023-01-25T06:33:17.517Z,67080.34
2023-01-25T06:35:44.651Z,67084.28
2023-01-25T06:38:11.734Z,67085.41
2023-01-25T06:40:38.856Z,67084.13
2023-01-25T06:43:10.303Z,67099.78
2023-01-25T06:45:38.026Z,67074.16
2023-01-25T06:48:05.140Z,67068.22
2023-01-25T06:50:32.222Z,67074.53
2023-01-25T06:52:59.656Z,67076.44
2023-01-25T06:55:26.722Z,67084.41
2023-01-25T06:57:53.763Z,67079.78
2023-01-25T07:00:21.322Z,67082.97
2023-01-25T07:02:48.433Z,67084.28
2023-01-25T07:05:15.570Z,67083.16
2023-01-25T07:07:46.562Z,67086.72
2023-01-25T07:10:13.752Z,67094.59
2023-01-25T07:12:40.895Z,67087.88
2023-01-25T07:15:08.854Z,67088.78
2023-01-25T07:17:36.349Z,67093.25
2023-01-25T07:20:03.801Z,67101.81
2023-01-25T07:22:30.953Z,67089.56
2023-01-25T07:24:59.019Z,67080.34
2023-01-25T07:27:26.220Z,67077.75
2023-01-25T07:29:53.542Z,67082.03
2023-01-25T07:32:20.802Z,67085.97
2023-01-25T07:34:48.141Z,67079.22
2023-01-25T07:37:15.401Z,67089.47
2023-01-25T07:39:48.289Z,67074.75
2023-01-25T07:42:15.684Z,67067.66
2023-01-25T07:44:51.945Z,67074.53
2023-01-25T07:47:19.266Z,67077.53
2023-01-25T07:49:46.745Z,67083.94
2023-01-25T07:52:14.303Z,67089.31
2023-01-25T07:54:41.538Z,67082.03
2023-01-25T07:57:08.835Z,67087.66
2023-01-25T07:59:36.355Z,67087.31
2023-01-25T08:02:03.937Z,67091.56
2023-01-25T08:04:31.239Z,67094.94
2023-01-25T08:06:58.485Z,67092.56
2023-01-25T08:09:25.812Z,67095.72
2023-01-25T08:11:53.735Z,67124.00
2023-01-25T08:14:21.241Z,67119.66
2023-01-25T08:17:10.672Z,67095.16
2023-01-25T08:19:38.055Z,67119.66
2023-01-25T08:22:07.462Z,67121.13
2023-01-25T08:24:34.882Z,67118.53
2023-01-25T08:27:02.407Z,67117.41
2023-01-25T08:29:29.795Z,67121.34
2023-01-25T08:31:57.084Z,67105.28
2023-01-25T08:34:24.483Z,67100.91
2023-01-25T08:39:19.047Z,67108.41
2023-01-25T08:41:46.337Z,67106.94
2023-01-25T08:44:13.626Z,67122.13
2023-01-25T08:46:40.924Z,67139.31
2023-01-25T08:49:10.855Z,67144.72
2023-01-25T08:51:38.225Z,67099.41
2023-01-25T08:54:08.006Z,67131.88
2023-01-25T08:56:38.080Z,67142.91
2023-01-25T08:59:06.191Z,67142.91
2023-01-25T09:01:34.141Z,67147.53
2023-01-25T09:04:01.779Z,67152.03
2023-01-25T09:06:29.212Z,67143.25
2023-01-25T09:08:58.178Z,67133.91
2023-01-25T09:11:25.480Z,67140.44
2023-01-25T09:13:53.115Z,67142.13
2023-01-25T09:16:29.178Z,67155.19
2023-01-25T09:18:58.700Z,67139.66
2023-01-25T09:21:26.909Z,67140.63
2023-01-25T09:24:09.981Z,67143.81
2023-01-25T09:26:40.802Z,67146.47
2023-01-25T09:29:11.011Z,67143.25
2023-01-25T09:31:40.955Z,67153.91
2023-01-25T09:34:23.218Z,67151.69
2023-01-25T09:36:50.638Z,67150.97
2023-01-25T09:39:18.040Z,67152.03
2023-01-25T09:42:32.996Z,67144.72
2023-01-25T09:45:21.807Z,67153.38
2023-01-25T09:47:59.409Z,67151.13
2023-01-25T09:50:34.070Z,67156.16
2023-01-25T09:53:19.754Z,67139.88
2023-01-25T09:55:54.276Z,67136.72
2023-01-25T09:58:29.283Z,67124.13
2023-01-25T10:01:37.513Z,67128.44
2023-01-25T10:04:18.840Z,67129.75
2023-01-25T10:07:00.227Z,67138.19
2023-01-25T10:09:42.739Z,67137.84
2023-01-25T10:12:20.717Z,67155.75
2023-01-25T10:14:49.070Z,67156.16
2023-01-25T10:17:22.501Z,67144.38
2023-01-25T10:19:52.808Z,67131.66
2023-01-25T10:22:24.173Z,67130.69
2023-01-25T10:25:07.565Z,67128.09
2023-01-25T10:27:54.186Z,67130.88
2023-01-25T10:30:27.743Z,67155.75
2023-01-25T10:33:17.749Z,67166.28
2023-01-25T10:35:47.775Z,67165.50
2023-01-25T10:38:21.751Z,67163.66
2023-01-25T10:41:02.257Z,67157.50
2023-01-25T10:43:30.128Z,67170.56
2023-01-25T10:45:57.456Z,67159.31
2023-01-25T10:48:34.129Z,67164.59
2023-01-25T10:51:01.798Z,67169.09
2023-01-25T10:53:39.576Z,67163.47
2023-01-25T10:56:25.245Z,67161.78
2023-01-25T10:59:07.389Z,67175.25
2023-01-25T11:01:37.011Z,67148.72
2023-01-25T11:04:23.779Z,67140.63
2023-01-25T11:06:51.615Z,67129.19
2023-01-25T11:09:21.888Z,67122.91
2023-01-25T11:11:58.068Z,67139.31
2023-01-25T11:14:28.035Z,67126.59
2023-01-25T11:16:57.204Z,67115.16
2023-01-25T11:19:28.650Z,67108.06
2023-01-25T11:21:58.658Z,67109.75
2023-01-25T11:24:45.313Z,67112.34
2023-01-25T11:27:18.588Z,67098.88
2023-01-25T11:30:07.417Z,67112.34
2023-01-25T11:32:35.038Z,67116.84
2023-01-25T11:35:02.742Z,67135.38
2023-01-25T11:37:48.921Z,67136.72
2023-01-25T11:40:31.264Z,67136.88
2023-01-25T11:43:30.562Z,67147.75
2023-01-25T11:46:06.913Z,67150.91
2023-01-25T11:48:43.857Z,67149.44
2023-01-25T11:51:20.060Z,67143.59
2023-01-25T11:54:05.718Z,67126.97
2023-01-25T11:56:49.845Z,67121.91
2023-01-25T11:59:46.747Z,67103.38
2023-01-25T12:02:23.376Z,67112.56
2023-01-25T12:05:16.302Z,67110.66
2023-01-25T12:07:55.415Z,67130.34
2023-01-25T12:10:25.929Z,67136.50
2023-01-25T12:13:06.136Z,67139.31
2023-01-25T12:15:57.902Z,67115.94
2023-01-25T12:18:43.728Z,67106.94
2023-01-25T12:21:33.340Z,67106.72
2023-01-25T12:24:19.521Z,67113.69
2023-01-25T12:26:55.593Z,67128.22
2023-01-25T12:29:41.030Z,67118.38
2023-01-25T12:32:27.153Z,67106.41
2023-01-25T12:35:21.615Z,67092.50
2023-01-25T12:37:56.624Z,67094.38
2023-01-25T12:40:46.881Z,67092.50
2023-01-25T12:43:33.871Z,67087.44
2023-01-25T12:46:09.820Z,67103.94
2023-01-25T12:48:45.381Z,67110.47
2023-01-25T12:51:14.667Z,67112.34
2023-01-25T12:53:48.761Z,67105.28
2023-01-25T12:56:48.401Z,67113.13
2023-01-25T12:59:40.324Z,67127.88
2023-01-25T13:02:48.810Z,67137.06
2023-01-25T13:05:25.935Z,67139.88
2023-01-25T13:08:02.023Z,67116.50
2023-01-25T13:10:35.787Z,67132.03
2023-01-25T13:13:22.732Z,67111.25
2023-01-25T13:15:53.368Z,67136.50
2023-01-25T13:18:35.018Z,67130.19
2023-01-25T13:21:11.456Z,67118.19
2023-01-25T13:23:47.890Z,67125.06
2023-01-25T13:26:22.167Z,67119.88
2023-01-25T13:28:54.219Z,67125.28
2023-01-25T13:31:51.555Z,67132.03
2023-01-25T13:34:39.308Z,67136.50
2023-01-25T13:37:32.473Z,67144.94
2023-01-25T13:40:32.793Z,67148.09
2023-01-25T13:43:03.854Z,67143.25
2023-01-25T13:45:36.235Z,67136.28
2023-01-25T13:48:13.096Z,67133.13
2023-01-25T13:50:47.986Z,67146.41
2023-01-25T13:53:15.240Z,67152.03
2023-01-25T13:55:46.653Z,67134.81
2023-01-25T13:58:20.692Z,67138.19
2023-01-25T14:01:09.284Z,67125.50
2023-01-25T14:03:42.877Z,67127.31
2023-01-25T14:06:20.037Z,67118.75
2023-01-25T14:08:49.132Z,67110.66
2023-01-25T14:11:25.223Z,67109.91
2023-01-25T14:14:33.344Z,67110.47
2023-01-25T14:17:02.076Z,67120.56
2023-01-25T14:19:30.280Z,67114.59
2023-01-25T14:22:19.433Z,67114.59
2023-01-25T14:25:11.489Z,67120.22
2023-01-25T14:27:47.527Z,67130.34
2023-01-25T14:30:18.272Z,67118.75
2023-01-25T14:32:45.823Z,67129.19
2023-01-25T14:35:54.694Z,67128.66
2023-01-25T14:38:33.801Z,67129.75
2023-01-25T14:41:03.515Z,67133.13
2023-01-25T14:43:31.242Z,67126.06
2023-01-25T14:45:58.645Z,67129.19
2023-01-25T14:48:41.587Z,67127.50
2023-01-25T14:51:17.473Z,67129.75
2023-01-25T14:53:49.973Z,67123.03
2023-01-25T14:56:22.313Z,67117.19
2023-01-25T14:58:59.043Z,67119.66
2023-01-25T15:01:39.607Z,67118.53
2023-01-25T15:04:12.984Z,67110.66
2023-01-25T15:07:17.582Z,67114.03
2023-01-25T15:10:27.524Z,67105.97
2023-01-25T15:13:04.121Z,67111.78
2023-01-25T15:15:55.570Z,67109.75
2023-01-25T15:18:52.667Z,67128.22
2023-01-25T15:21:25.743Z,67125.81
2023-01-25T15:23:54.864Z,67124.13
2023-01-25T15:26:28.625Z,67124.50
2023-01-25T15:28:58.682Z,67124.50
2023-01-25T15:31:35.235Z,67111.25
2023-01-25T15:34:04.014Z,67100.97
2023-01-25T15:36:33.757Z,67100.00
2023-01-25T15:39:01.570Z,67100.00
2023-01-25T15:41:28.951Z,67100.00
2023-01-25T15:43:56.533Z,67091.25
2023-01-25T15:46:27.025Z,67090.47
2023-01-25T15:48:55.360Z,67101.13
2023-01-25T15:51:23.418Z,67111.38
2023-01-25T15:53:50.754Z,67098.31
2023-01-25T15:56:20.496Z,67102.59
2023-01-25T15:58:54.005Z,67106.19
2023-01-25T16:01:23.233Z,67107.31
2023-01-25T16:03:51.025Z,67110.47
2023-01-25T16:06:36.155Z,67112.50
2023-01-25T16:09:30.250Z,67104.13
2023-01-25T16:12:02.190Z,67093.06
2023-01-25T16:14:41.502Z,67093.25
2023-01-25T16:17:20.067Z,67091.56
2023-01-25T16:19:48.039Z,67096.63
2023-01-25T16:22:15.466Z,67091.44
2023-01-25T16:24:44.271Z,67095.38
2023-01-25T16:27:25.500Z,67096.63
2023-01-25T16:29:53.213Z,67108.66
2023-01-25T16:32:20.731Z,67105.63
2023-01-25T16:34:47.889Z,67094.94
2023-01-25T16:37:18.799Z,67087.09
2023-01-25T16:48:24.424Z,67094.94
2023-01-25T16:50:52.007Z,67087.09
2023-01-25T16:53:19.287Z,67092.84
2023-01-25T16:55:46.615Z,67085.41
2023-01-25T16:58:14.372Z,67089.56
2023-01-25T17:00:41.798Z,67092.34
2023-01-25T17:03:09.528Z,67095.72
2023-01-25T17:05:38.552Z,67105.75
2023-01-25T17:08:05.989Z,67099.09
2023-01-25T17:10:36.786Z,67097.59
2023-01-25T17:13:04.072Z,67096.06
2023-01-25T17:15:33.774Z,67097.19
2023-01-25T17:18:01.145Z,67098.31
2023-01-25T17:20:28.602Z,67096.28
2023-01-25T17:22:55.883Z,67097.75
2023-01-25T17:25:23.286Z,67095.16
2023-01-25T17:27:50.843Z,67107.88
2023-01-25T17:30:24.539Z,67111.25
2023-01-25T17:32:52.716Z,67108.06
2023-01-25T17:35:20.126Z,67110.09
2023-01-25T17:37:47.536Z,67088.97
2023-01-25T17:40:16.204Z,67113.25
2023-01-25T17:42:53.766Z,67107.88
2023-01-25T17:45:23.785Z,67098.75
2023-01-25T17:47:51.537Z,67102.25
2023-01-25T17:50:19.142Z,67120.38
2023-01-25T17:52:46.552Z,67108.41
2023-01-25T17:55:15.079Z,67100.56
2023-01-25T17:57:42.404Z,67092.34
2023-01-25T18:00:12.092Z,67092.00
2023-01-25T18:02:48.312Z,67088.41
2023-01-25T18:09:44.804Z,67096.84
2023-01-25T18:15:54.603Z,67108.41
2023-01-25T18:18:22.430Z,67100.56
2023-01-25T18:20:49.977Z,67095.16
2023-01-25T18:23:17.638Z,67091.56
2023-01-25T18:25:46.363Z,67089.31
2023-01-25T18:28:14.323Z,67094.03
2023-01-25T18:30:53.001Z,67099.22
2023-01-25T18:33:52.574Z,67101.69
2023-01-25T18:36:25.936Z,67096.63
2023-01-25T18:38:55.145Z,67099.28
2023-01-25T18:41:23.091Z,67109.00
2023-01-25T18:43:50.433Z,67097.97
2023-01-25T18:47:13.718Z,67099.44
2023-01-25T18:49:42.965Z,67098.69
2023-01-25T18:52:22.404Z,67085.41
2023-01-25T18:55:13.568Z,67083.94
2023-01-25T19:01:51.327Z,67080.91
2023-01-25T19:04:20.380Z,67085.97
2023-01-25T19:06:47.668Z,67082.59
2023-01-25T19:09:15.283Z,67080.91
2023-01-25T19:11:42.960Z,67072.16
2023-01-25T19:14:10.324Z,67077.53
2023-01-25T19:16:37.939Z,67074.16
2023-01-25T19:19:05.316Z,67079.94
2023-01-25T19:21:32.799Z,67081.47
2023-01-25T19:24:00.185Z,67083.16
2023-01-25T19:26:28.403Z,67077.75
2023-01-25T19:28:56.291Z,67082.38
2023-01-25T19:31:27.009Z,67081.47
2023-01-25T19:34:02.443Z,67090.47
2023-01-25T19:37:20.751Z,67082.81
2023-01-25T19:39:51.528Z,67086.53
2023-01-25T19:42:19.181Z,67097.75
2023-01-25T19:49:13.355Z,67080.56
2023-01-25T19:51:55.124Z,67086.53
2023-01-25T19:54:49.060Z,67090.03
2023-01-25T19:57:17.434Z,67079.78
2023-01-25T19:59:44.791Z,67074.94
2023-01-25T20:02:12.451Z,67075.84
2023-01-25T20:04:39.882Z,67076.44
2023-01-25T20:07:07.241Z,67071.38
2023-01-25T20:10:02.699Z,67073.06
2023-01-25T20:12:30.015Z,67071.94
2023-01-25T20:14:57.772Z,67098.88
2023-01-25T20:18:00.200Z,67093.47
2023-01-25T20:20:27.690Z,67088.97
2023-01-25T20:22:55.001Z,67093.84
2023-01-25T20:25:22.416Z,67091.78
2023-01-25T20:27:49.894Z,67097.53
2023-01-25T20:30:17.685Z,67104.50
2023-01-25T20:32:45.094Z,67106.53
2023-01-25T20:35:12.728Z,67103.81
2023-01-25T20:37:40.114Z,67108.28
2023-01-25T20:40:08.121Z,67102.25
2023-01-25T20:42:35.639Z,67099.66
2023-01-25T20:45:03.213Z,67101.81
2023-01-25T20:47:30.650Z,67089.31
2023-01-25T20:49:58.027Z,67090.25
2023-01-25T20:52:25.633Z,67080.56
2023-01-25T20:54:54.022Z,67081.47
2023-01-25T20:57:21.255Z,67088.22
2023-01-25T20:59:48.811Z,67079.66
2023-01-25T21:02:16.333Z,67082.03
2023-01-25T21:04:43.745Z,67080.00
2023-01-25T21:07:11.322Z,67080.34
2023-01-25T21:09:39.133Z,67085.75
2023-01-25T21:12:07.398Z,67089.31
2023-01-25T21:14:34.745Z,67089.91
2023-01-25T21:17:01.987Z,67092.84
2023-01-25T21:19:29.261Z,67057.53
2023-01-25T21:21:56.519Z,67082.03
2023-01-25T21:24:24.020Z,67086.53
2023-01-25T21:26:51.474Z,67097.91
2023-01-25T21:29:21.132Z,67084.84
2023-01-25T21:31:51.500Z,67085.75
2023-01-25T21:34:19.295Z,67086.88
2023-01-25T21:36:46.656Z,67093.69
2023-01-25T21:39:13.975Z,67105.28
2023-01-25T21:41:41.457Z,67103.03
2023-01-25T21:44:28.202Z,67100.56
2023-01-25T21:47:27.451Z,67101.13
2023-01-25T21:50:02.894Z,67102.47
2023-01-25T21:52:30.142Z,67105.63
2023-01-25T21:54:57.618Z,67102.25
2023-01-25T21:57:24.889Z,67103.16
2023-01-25T21:59:54.236Z,67110.66
2023-01-25T22:02:21.995Z,67112.16
2023-01-25T22:04:49.348Z,67118.53
2023-01-25T22:07:16.716Z,67121.13
2023-01-25T22:09:44.071Z,67122.81
2023-01-25T22:12:12.436Z,67124.72
2023-01-25T22:14:39.966Z,67116.50
2023-01-25T22:17:07.294Z,67110.66
2023-01-25T22:19:34.554Z,67112.94
2023-01-25T22:22:02.009Z,67114.59
2023-01-25T22:24:29.251Z,67115.72
2023-01-25T22:27:02.746Z,67107.50
2023-01-25T22:29:30.225Z,67112.78
2023-01-25T22:31:57.617Z,67124.72
2023-01-25T22:34:25.100Z,67121.00
2023-01-25T22:36:52.412Z,67124.72
2023-01-25T22:39:19.711Z,67133.13
2023-01-25T22:41:47.111Z,67129.00
2023-01-25T22:44:14.816Z,67127.75
2023-01-25T22:46:42.425Z,67133.34
2023-01-25T22:49:09.908Z,67139.31
2023-01-25T22:51:37.336Z,67137.63
2023-01-25T22:54:05.329Z,67132.03
2023-01-25T22:56:35.697Z,67114.59
2023-01-25T22:59:03.454Z,67116.28
2023-01-25T23:01:33.529Z,67114.59
2023-01-25T23:04:01.667Z,67110.09
2023-01-25T23:06:31.473Z,67098.75
2023-01-25T23:09:00.925Z,67111.25
2023-01-25T23:11:35.592Z,67098.88
2023-01-25T23:14:30.923Z,67108.66
2023-01-25T23:17:18.189Z,67103.94
2023-01-25T23:19:45.551Z,67096.63
2023-01-25T23:22:13.385Z,67091.56
2023-01-25T23:24:40.633Z,67094.38
2023-01-25T23:27:07.917Z,67091.00
2023-01-25T23:29:35.327Z,67093.63
2023-01-25T23:32:02.638Z,67084.28
2023-01-25T23:34:34.929Z,67089.13
2023-01-25T23:37:02.290Z,67085.25
2023-01-25T23:39:29.583Z,67087.09
2023-01-25T23:41:56.819Z,67091.56
2023-01-25T23:44:24.099Z,67101.69
2023-01-25T23:46:51.515Z,67114.03
2023-01-25T23:49:18.817Z,67108.66
2023-01-25T23:51:46.170Z,67111.09
2023-01-25T23:54:13.424Z,67102.66
2023-01-25T23:56:40.826Z,67104.66
2023-01-25T23:59:08.237Z,67109.69
